ADDS METAR Data INFO
IDs: Format: Raw Decoded Include TAF

Data at: 2208 UTC 24 Jun 2018

KBCT 242147Z 12010KT 10SM SCT023 30/25 A3002 RMK LTG DSNT SW
KBCT 242047Z 11009KT 10SM BKN024 30/24 A3003
KBCT 241947Z 08008KT 10SM SCT028 31/24 A3003
KBCT 241847Z 10011KT 10SM VCTS SCT028 32/24 A3002
KBCT 241650Z 12010KT 10SM CLR 31/24 A3005
KBCT 241555Z 12007KT 9SM SCT030 32/24 A3007 RMK RWY 5 ATIS L
KBCT 241450Z 14004KT 10SM SCT030 31/24 A3006 RMK RWY 5 ATIS K
KBCT 241347Z 00000KT 10SM CLR 30/24 A3006 RMK RWY 5 ATIS J
KBCT 241247Z 00000KT 10SM CLR 29/25 A3005 RMK RWY 5 ATIS I
KBCT 241147Z 00000KT 10SM SCT020 26/24 A3003 RMK RWY 5 ATIS H
KBCT 241047Z 00000KT 10SM SCT020 25/24 A3001
KBCT 240247Z 13007KT 10SM VCTS SCT023 BKN029 27/24 A3004 RMK LTG DSNT NE LAST
KBCT 240155Z 00000KT 10SM TS CLR 26/24 A3004 RMK LTG DSNT NE-SE
KBCT 240052Z 02004KT 10SM VCTS FEW120 28/23 A3003 RMK LTG DSNT NE
KBCT 232347Z 00000KT 10SM VCTS SCT033 29/23 A3001
KBCT 232247Z 16004KT 10SM SCT034 30/23 A3001
KBCT 232147Z 18010KT 10SM SCT034 31/23 A3000
KBCT 232047Z 00000KT 10SM VCTS BKN095 31/22 A3000
KBCT 231947Z 00000KT 10SM CLR 30/23 A3000
KBCT 231847Z 00000KT 10SM CLR 25/24 A3002
KBCT 231820Z 14005KT 7SM VCTS-RA SCT030 24/23 A3003
KBCT 231755Z 32014KT 2SM TSRA BKN020 26/23 A3006
KBCT 231550Z 08008KT 10SM VCTS BKN020 30/25 A3003
KBCT 231455Z 30002KT 10SM SCT030 31/24 A3004
KBCT 231350Z 30004KT 10SM CLR 30/24 A3002
KBCT 231150Z 00000KT 10SM CLR 27/25 A3001
KBCT 231053Z 25003KT 10SM CLR 24/24 A3000